createdAt,value
2018-12-06T00:02:35.466Z,100977.98
2018-12-06T00:05:14.582Z,100970.75
2018-12-06T00:11:09.812Z,100972.82
2018-12-06T00:13:42.346Z,100972.61
2018-12-06T00:16:18.069Z,100970.64
2018-12-06T00:19:08.394Z,100967.14
2018-12-06T00:21:54.553Z,100966.52
2018-12-06T00:24:32.869Z,100967.15
2018-12-06T00:27:11.730Z,100967.95
2018-12-06T00:29:51.438Z,100964.86
2018-12-06T00:32:22.499Z,100973.64
2018-12-06T00:34:57.165Z,100969.52
2018-12-06T00:37:34.986Z,100963.55
2018-12-06T00:40:13.825Z,100962.92
2018-12-06T00:42:44.996Z,100965.50
2018-12-06T00:45:19.724Z,100966.20
2018-12-06T00:47:50.846Z,100964.76
2018-12-06T00:50:29.743Z,100971.38
2018-12-06T00:53:02.067Z,100970.95
2018-12-06T00:55:32.014Z,100965.17
2018-12-06T00:58:03.197Z,100964.86
2018-12-06T01:00:35.481Z,100967.36
2018-12-06T01:03:07.381Z,100964.04
2018-12-06T01:05:45.908Z,100965.20
2018-12-06T01:08:28.656Z,100958.67
2018-12-06T01:10:59.522Z,100964.46
2018-12-06T01:13:30.758Z,100967.57
2018-12-06T01:16:00.586Z,100967.95
2018-12-06T01:18:31.716Z,100969.20
2018-12-06T01:21:05.626Z,100964.04
2018-12-06T01:23:45.339Z,100966.52
2018-12-06T01:26:16.788Z,100964.56
2018-12-06T01:28:51.418Z,100969.41
2018-12-06T01:31:31.171Z,100968.59
2018-12-06T01:34:06.178Z,100960.76
2018-12-06T01:36:45.105Z,100958.47
2018-12-06T01:39:27.671Z,100958.08
2018-12-06T01:41:57.320Z,100963.83
2018-12-06T01:44:35.741Z,100961.67
2018-12-06T01:47:14.907Z,100960.55
2018-12-06T01:49:51.048Z,100966.22
2018-12-06T01:52:22.182Z,100953.84
2018-12-06T01:54:56.058Z,100953.42
2018-12-06T01:57:28.120Z,100949.70
2018-12-06T01:59:59.275Z,100948.38
2018-12-06T02:02:31.262Z,100946.28
2018-12-06T02:05:08.199Z,100954.23
2018-12-06T02:07:39.341Z,100948.16
2018-12-06T02:10:12.265Z,100946.11
2018-12-06T02:12:42.198Z,100948.97
2018-12-06T02:15:17.077Z,100944.55
2018-12-06T02:17:56.073Z,100941.66
2018-12-06T02:20:27.096Z,100947.83
2018-12-06T02:23:14.009Z,100951.46
2018-12-06T02:25:53.878Z,100948.98
2018-12-06T02:28:31.735Z,100942.07
2018-12-06T02:31:09.660Z,100945.79
2018-12-06T02:33:43.784Z,100940.52
2018-12-06T02:36:17.643Z,100937.73
2018-12-06T02:38:56.949Z,100937.93
2018-12-06T02:41:31.651Z,100941.55
2018-12-06T02:44:03.092Z,100943.72
2018-12-06T02:46:37.731Z,100941.34
2018-12-06T02:49:07.194Z,100941.55
2018-12-06T02:51:38.964Z,100938.13
2018-12-06T02:54:10.223Z,100935.45
2018-12-06T02:56:41.308Z,100934.86
2018-12-06T02:59:11.227Z,100935.56
2018-12-06T03:01:42.378Z,100939.70
2018-12-06T03:04:12.386Z,100940.41
2018-12-06T03:06:43.253Z,100938.15
2018-12-06T03:09:13.184Z,100938.55
2018-12-06T03:11:44.633Z,100939.17
2018-12-06T03:14:23.257Z,100938.65
2018-12-06T03:17:05.944Z,100932.27
2018-12-06T03:19:44.407Z,100935.86
2018-12-06T03:22:20.229Z,100945.98
2018-12-06T03:25:09.392Z,100944.97
2018-12-06T03:27:48.400Z,100945.14
2018-12-06T03:30:26.541Z,100941.75
2018-12-06T03:33:00.017Z,100952.37
2018-12-06T03:35:31.074Z,100949.48
2018-12-06T03:38:10.122Z,100945.98
2018-12-06T03:40:40.593Z,100946.72
2018-12-06T03:43:11.963Z,100949.28
2018-12-06T03:45:46.680Z,100946.92
2018-12-06T03:48:24.432Z,100940.51
2018-12-06T03:50:55.990Z,100948.67
2018-12-06T03:53:27.049Z,100955.48
2018-12-06T03:55:59.132Z,100941.34
2018-12-06T03:58:32.836Z,100937.41
2018-12-06T04:01:02.741Z,100920.62
2018-12-06T04:03:35.692Z,100927.20
2018-12-06T04:06:14.441Z,100933.81
2018-12-06T04:08:54.374Z,100941.73
2018-12-06T04:11:24.330Z,100941.66
2018-12-06T04:13:54.172Z,100949.52
2018-12-06T04:16:33.845Z,100950.53
2018-12-06T04:19:07.015Z,100949.82
2018-12-06T04:21:41.063Z,100950.95
2018-12-06T04:24:15.064Z,100940.72
2018-12-06T04:26:46.296Z,100938.66
2018-12-06T04:29:20.117Z,100930.20
2018-12-06T04:31:54.476Z,100926.06
2018-12-06T04:34:32.567Z,100937.64
2018-12-06T04:39:57.838Z,100947.84
2018-12-06T04:42:36.718Z,100954.26
2018-12-06T04:45:11.190Z,100952.59
2018-12-06T04:47:43.835Z,100962.48
2018-12-06T04:50:21.829Z,100970.11
2018-12-06T04:52:53.022Z,100974.56
2018-12-06T04:55:31.698Z,100973.13
2018-12-06T04:58:10.915Z,100979.10
2018-12-06T05:00:53.440Z,100979.11
2018-12-06T05:03:35.424Z,100972.19
2018-12-06T05:06:14.857Z,100975.58
2018-12-06T05:08:55.503Z,100985.10
2018-12-06T05:11:28.362Z,100987.55
2018-12-06T05:14:13.779Z,100986.39
2018-12-06T05:16:53.129Z,100987.62
2018-12-06T05:19:31.125Z,100981.97
2018-12-06T05:22:03.430Z,100987.55
2018-12-06T05:24:43.231Z,100979.81
2018-12-06T05:27:16.473Z,100977.23
2018-12-06T05:29:48.727Z,100977.55
2018-12-06T05:32:21.941Z,100995.99
2018-12-06T05:35:00.721Z,100988.33
2018-12-06T05:37:39.850Z,101000.33
2018-12-06T05:40:25.439Z,100999.73
2018-12-06T05:42:59.836Z,101008.62
2018-12-06T05:45:33.067Z,101011.00
2018-12-06T05:48:12.002Z,101012.45
2018-12-06T05:50:50.794Z,101003.65
2018-12-06T05:53:24.112Z,101017.19
2018-12-06T05:55:57.093Z,101021.39
2018-12-06T05:58:29.183Z,101015.72
2018-12-06T06:01:08.646Z,101012.75
2018-12-06T06:03:40.988Z,101000.28
2018-12-06T06:06:20.691Z,101000.99
2018-12-06T06:08:54.141Z,101009.55
2018-12-06T06:11:32.921Z,101017.28
2018-12-06T06:14:24.811Z,101022.02
2018-12-06T06:17:03.646Z,101014.11
2018-12-06T06:19:37.223Z,101012.35
2018-12-06T06:22:08.440Z,101017.20
2018-12-06T06:24:43.469Z,101026.70
2018-12-06T06:27:22.385Z,101037.44
2018-12-06T06:29:57.502Z,101041.78
2018-12-06T06:32:28.810Z,101044.45
2018-12-06T06:35:07.829Z,101060.36
2018-12-06T06:37:45.777Z,101071.63
2018-12-06T06:40:16.778Z,101079.03
2018-12-06T06:42:48.716Z,101083.50
2018-12-06T06:45:18.699Z,101081.72
2018-12-06T06:47:51.849Z,101090.33
2018-12-06T06:50:31.519Z,101088.23
2018-12-06T06:53:05.653Z,101084.20
2018-12-06T06:55:44.682Z,101079.67
2018-12-06T06:58:16.905Z,101082.16
2018-12-06T07:00:54.770Z,101092.70
2018-12-06T07:03:29.004Z,101088.13
2018-12-06T07:08:55.817Z,101106.22
2018-12-06T07:11:34.396Z,101115.31
2018-12-06T07:14:13.201Z,101116.33
2018-12-06T07:19:38.438Z,101112.42
2018-12-06T07:25:01.946Z,101110.37
2018-12-06T07:27:41.426Z,101115.42
2018-12-06T07:30:13.646Z,101121.43
2018-12-06T07:32:45.686Z,101121.31
2018-12-06T07:35:24.649Z,101128.77
2018-12-06T07:38:03.754Z,101128.86
2018-12-06T07:40:41.499Z,101141.44
2018-12-06T07:43:13.810Z,101141.67
2018-12-06T07:45:47.034Z,101138.98
2018-12-06T07:48:39.522Z,101151.28
2018-12-06T07:51:13.599Z,101156.14
2018-12-06T07:53:46.644Z,101155.86
2018-12-06T07:56:18.986Z,101163.30
2018-12-06T07:58:51.919Z,101164.64
2018-12-06T08:01:29.688Z,101153.23
2018-12-06T08:04:01.695Z,101149.64
2018-12-06T08:06:39.529Z,101154.48
2018-12-06T08:09:13.460Z,101153.03
2018-12-06T08:11:44.742Z,101153.92
2018-12-06T08:14:22.483Z,101152.17
2018-12-06T08:17:01.419Z,101148.03
2018-12-06T08:19:36.560Z,101146.49
2018-12-06T08:22:08.744Z,101139.58
2018-12-06T08:24:39.808Z,101143.59
2018-12-06T08:27:14.589Z,101140.28
2018-12-06T08:29:46.909Z,101146.44
2018-12-06T08:32:19.079Z,101149.23
2018-12-06T08:34:59.103Z,101148.55
2018-12-06T08:37:39.056Z,101145.98
2018-12-06T08:40:13.071Z,101151.52
2018-12-06T08:42:58.342Z,101157.25
2018-12-06T08:45:31.243Z,101162.66
2018-12-06T08:48:10.033Z,101160.27
2018-12-06T08:50:41.443Z,101161.41
2018-12-06T08:53:13.307Z,101161.31
2018-12-06T08:55:52.800Z,101162.03
2018-12-06T08:58:30.756Z,101168.85
2018-12-06T09:01:09.612Z,101167.19
2018-12-06T09:03:42.806Z,101167.16
2018-12-06T09:06:17.731Z,101174.95
2018-12-06T09:08:49.847Z,101162.19
2018-12-06T09:11:27.655Z,101161.97
2018-12-06T09:14:06.743Z,101161.50
2018-12-06T09:16:38.699Z,101159.02
2018-12-06T09:19:16.451Z,101154.27
2018-12-06T09:21:48.947Z,101142.37
2018-12-06T09:24:27.577Z,101156.30
2018-12-06T09:27:01.864Z,101166.44
2018-12-06T09:29:41.033Z,101167.78
2018-12-06T09:32:16.484Z,101184.74
2018-12-06T09:37:48.255Z,101194.09
2018-12-06T09:43:12.841Z,101190.23
2018-12-06T09:45:50.689Z,101195.89
2018-12-06T09:48:21.224Z,101203.11
2018-12-06T09:51:00.298Z,101207.92
2018-12-06T09:53:32.367Z,101211.52
2018-12-06T09:56:17.688Z,101204.78
2018-12-06T09:58:56.102Z,101198.36
2018-12-06T10:01:34.264Z,101204.41
2018-12-06T10:04:06.414Z,101204.76
2018-12-06T10:06:45.399Z,101211.76
2018-12-06T10:09:19.662Z,101213.28
2018-12-06T10:11:54.178Z,101207.27
2018-12-06T10:14:32.703Z,101204.38
2018-12-06T10:17:10.723Z,101206.58
2018-12-06T10:19:48.713Z,101209.98
2018-12-06T10:22:35.292Z,101207.80
2018-12-06T10:25:13.777Z,101211.37
2018-12-06T10:27:54.635Z,101216.20
2018-12-06T10:30:24.229Z,101216.53
2018-12-06T10:33:08.650Z,101219.98
2018-12-06T10:35:48.151Z,101224.03
2018-12-06T10:38:26.960Z,101223.08
2018-12-06T10:41:12.807Z,101226.89
2018-12-06T10:43:44.292Z,101227.20
2018-12-06T10:46:18.253Z,101224.45
2018-12-06T10:48:52.484Z,101222.45
2018-12-06T10:51:33.069Z,101221.99
2018-12-06T10:54:10.977Z,101229.86
2018-12-06T10:59:42.495Z,101207.77
2018-12-06T11:02:20.092Z,101205.89
2018-12-06T11:04:58.098Z,101214.38
2018-12-06T11:07:36.800Z,101213.80
2018-12-06T11:10:07.906Z,101200.08
2018-12-06T11:12:38.951Z,101206.21
2018-12-06T11:15:17.927Z,101219.03
2018-12-06T11:18:03.407Z,101217.54
2018-12-06T11:20:37.669Z,101227.13
2018-12-06T11:23:08.814Z,101230.30
2018-12-06T11:25:47.240Z,101243.20
2018-12-06T11:28:18.732Z,101238.41
2018-12-06T11:30:57.539Z,101244.22
2018-12-06T11:33:28.786Z,101252.23
2018-12-06T11:36:06.694Z,101251.12
2018-12-06T11:38:38.932Z,101258.97
2018-12-06T11:41:18.621Z,101251.58
2018-12-06T11:43:53.510Z,101256.67
2018-12-06T11:46:25.953Z,101252.30
2018-12-06T11:51:54.192Z,101258.91
2018-12-06T11:54:28.322Z,101256.66
2018-12-06T11:57:03.151Z,101255.45
2018-12-06T11:59:50.142Z,101258.25
2018-12-06T12:02:21.300Z,101256.52
2018-12-06T12:07:53.922Z,101254.27
2018-12-06T12:10:35.436Z,101260.33
2018-12-06T12:13:07.048Z,101260.23
2018-12-06T12:15:38.898Z,101252.05
2018-12-06T12:18:10.350Z,101247.78
2018-12-06T12:20:49.249Z,101256.05
2018-12-06T12:23:20.418Z,101249.89
2018-12-06T12:25:58.145Z,101249.02
2018-12-06T12:28:36.166Z,101245.30
2018-12-06T12:31:07.344Z,101249.20
2018-12-06T12:33:38.490Z,101231.80
2018-12-06T12:36:16.297Z,101247.55
2018-12-06T12:38:45.945Z,101238.48
2018-12-06T12:41:27.007Z,101235.06
2018-12-06T12:44:06.846Z,101231.36
2018-12-06T12:46:42.261Z,101219.67
2018-12-06T12:49:24.085Z,101218.64
2018-12-06T12:51:58.910Z,101223.06
2018-12-06T12:54:28.841Z,101227.47
2018-12-06T12:57:02.742Z,101234.67
2018-12-06T12:59:40.525Z,101231.24
2018-12-06T13:02:12.957Z,101224.77
2018-12-06T13:05:00.650Z,101224.49
2018-12-06T13:07:39.383Z,101222.69
2018-12-06T13:10:15.524Z,101220.88
2018-12-06T13:12:54.539Z,101229.46
2018-12-06T13:15:33.880Z,101222.61
2018-12-06T13:18:12.468Z,101223.73
2018-12-06T13:20:45.048Z,101224.72
2018-12-06T13:23:17.868Z,101238.88
2018-12-06T13:25:50.035Z,101229.74
2018-12-06T13:28:28.654Z,101226.12
2018-12-06T13:31:01.005Z,101229.28
2018-12-06T13:33:35.806Z,101219.83
2018-12-06T13:36:13.975Z,101222.69
2018-12-06T13:38:44.187Z,101219.41
2018-12-06T13:41:23.752Z,101223.45
2018-12-06T13:43:57.649Z,101225.63
2018-12-06T13:46:37.740Z,101234.52
2018-12-06T13:49:10.670Z,101225.69
2018-12-06T13:51:48.895Z,101225.61
2018-12-06T13:54:26.887Z,101223.14
2018-12-06T13:56:52.998Z,101222.51
2018-12-06T13:59:27.011Z,101215.95
2018-12-06T14:01:56.997Z,101219.73
2018-12-06T14:04:36.625Z,101220.29
2018-12-06T14:07:06.571Z,101211.99
2018-12-06T14:09:45.432Z,101210.23
2018-12-06T14:12:17.761Z,101211.30
2018-12-06T14:14:51.043Z,101211.88
2018-12-06T14:17:30.621Z,101209.08
2018-12-06T14:20:10.706Z,101215.53
2018-12-06T14:22:44.771Z,101220.16
2018-12-06T14:25:24.560Z,101211.78
2018-12-06T14:28:11.159Z,101223.70
2018-12-06T14:30:42.028Z,101231.34
2018-12-06T14:33:12.857Z,101230.30
2018-12-06T14:38:44.477Z,101238.64
2018-12-06T14:41:34.181Z,101247.31
2018-12-06T14:44:11.876Z,101243.49
2018-12-06T14:46:43.020Z,101239.83
2018-12-06T14:49:21.971Z,101235.62
2018-12-06T14:51:57.207Z,101240.27
2018-12-06T14:54:28.093Z,101231.49
2018-12-06T14:56:58.025Z,101235.23
2018-12-06T14:59:28.815Z,101231.50
2018-12-06T15:02:10.197Z,101226.91
2018-12-06T15:04:49.637Z,101230.22
2018-12-06T15:07:22.119Z,101237.71
2018-12-06T15:10:00.989Z,101236.67
2018-12-06T15:12:32.124Z,101231.13
2018-12-06T15:15:06.225Z,101227.53
2018-12-06T15:17:46.313Z,101225.88
2018-12-06T15:23:12.952Z,101234.86
2018-12-06T15:25:52.519Z,101229.24
2018-12-06T15:28:31.866Z,101223.48
2018-12-06T15:31:09.987Z,101225.78
2018-12-06T15:33:45.241Z,101218.81
2018-12-06T15:36:25.984Z,101222.88
2018-12-06T15:38:57.300Z,101222.88
2018-12-06T15:41:35.237Z,101211.78
2018-12-06T15:44:10.263Z,101214.08
2018-12-06T15:46:44.298Z,101222.88
2018-12-06T15:49:19.525Z,101223.53
2018-12-06T15:51:53.354Z,101222.20
2018-12-06T15:54:32.277Z,101231.73
2018-12-06T15:57:19.063Z,101228.13
2018-12-06T15:59:57.296Z,101227.52
2018-12-06T16:02:28.532Z,101224.52
2018-12-06T16:05:00.612Z,101220.01
2018-12-06T16:07:41.326Z,101211.02
2018-12-06T16:10:15.705Z,101220.18
2018-12-06T16:12:51.915Z,101215.77
2018-12-06T16:15:31.038Z,101203.44
2018-12-06T16:18:09.968Z,101206.30
2018-12-06T16:20:43.426Z,101204.88
2018-12-06T16:23:16.400Z,101206.30
2018-12-06T16:26:02.233Z,101196.76
2018-12-06T16:28:33.784Z,101201.78
2018-12-06T16:31:13.296Z,101207.35
2018-12-06T16:33:46.375Z,101207.41
2018-12-06T16:36:28.808Z,101205.09
2018-12-06T16:38:58.485Z,101202.48
2018-12-06T16:41:44.823Z,101208.14
2018-12-06T16:44:25.193Z,101212.83
2018-12-06T16:47:01.164Z,101209.64
2018-12-06T16:49:34.143Z,101213.70
2018-12-06T16:52:06.708Z,101217.13
2018-12-06T16:54:46.059Z,101207.98
2018-12-06T16:57:27.085Z,101207.17
2018-12-06T17:00:14.605Z,101211.30
2018-12-06T17:02:48.708Z,101205.91
2018-12-06T17:05:19.650Z,101206.73
2018-12-06T17:07:50.506Z,101209.16
2018-12-06T17:13:16.760Z,101203.66
2018-12-06T17:15:48.106Z,101200.58
2018-12-06T17:18:27.837Z,101199.84
2018-12-06T17:21:02.995Z,101202.84
2018-12-06T17:23:35.265Z,101197.22
2018-12-06T17:26:14.969Z,101198.56
2018-12-06T17:28:50.036Z,101197.75
2018-12-06T17:31:24.837Z,101205.31
2018-12-06T17:33:57.015Z,101203.73
2018-12-06T17:36:27.962Z,101199.91
2018-12-06T17:39:07.093Z,101194.36
2018-12-06T17:41:47.634Z,101193.16
2018-12-06T17:44:37.658Z,101191.89
2018-12-06T17:47:11.940Z,101177.48
2018-12-06T17:49:51.875Z,101176.80
2018-12-06T17:52:23.393Z,101173.06
2018-12-06T17:54:56.557Z,101177.56
2018-12-06T17:57:27.281Z,101171.85
2018-12-06T17:59:59.469Z,101180.93
2018-12-06T18:02:31.534Z,101177.42
2018-12-06T18:05:10.518Z,101185.13
2018-12-06T18:07:41.890Z,101179.29
2018-12-06T18:10:29.193Z,101174.34
2018-12-06T18:13:01.273Z,101174.77
2018-12-06T18:15:31.576Z,101183.41
2018-12-06T18:18:16.975Z,101186.73
2018-12-06T18:20:56.507Z,101188.34
2018-12-06T18:23:28.613Z,101188.49
2018-12-06T18:26:14.762Z,101180.95
2018-12-06T18:28:45.404Z,101180.17
2018-12-06T18:31:24.423Z,101177.09
2018-12-06T18:33:58.203Z,101176.89
2018-12-06T18:36:33.165Z,101174.77
2018-12-06T18:39:12.301Z,101180.88
2018-12-06T18:41:47.232Z,101185.07
2018-12-06T18:44:27.661Z,101183.53
2018-12-06T18:47:07.666Z,101185.50
2018-12-06T18:49:46.952Z,101184.37
2018-12-06T18:52:19.293Z,101184.81
2018-12-06T18:54:54.360Z,101183.09
2018-12-06T18:57:26.959Z,101182.52
2018-12-06T18:59:57.992Z,101188.66
2018-12-06T19:02:31.181Z,101187.61
2018-12-06T19:05:22.974Z,101191.66
2018-12-06T19:10:48.801Z,101191.89
2018-12-06T19:13:20.967Z,101188.51
2018-12-06T19:15:59.959Z,101170.72
2018-12-06T19:18:37.879Z,101180.95
2018-12-06T19:21:16.688Z,101177.17
2018-12-06T19:23:58.512Z,101176.36
2018-12-06T19:26:37.783Z,101186.54
2018-12-06T19:29:10.730Z,101175.08
2018-12-06T19:31:49.804Z,101174.27
2018-12-06T19:34:22.836Z,101178.08
2018-12-06T19:36:54.466Z,101173.34
2018-12-06T19:39:39.154Z,101177.56
2018-12-06T19:42:14.391Z,101177.70
2018-12-06T19:44:53.396Z,101177.11
2018-12-06T19:47:29.177Z,101172.00
2018-12-06T19:50:08.724Z,101172.63
2018-12-06T19:52:41.302Z,101173.67
2018-12-06T19:55:17.381Z,101175.31
2018-12-06T19:57:57.927Z,101175.00
2018-12-06T20:00:38.177Z,101178.30
2018-12-06T20:03:11.774Z,101173.70
2018-12-06T20:05:52.428Z,101174.78
2018-12-06T20:08:34.470Z,101171.55
2018-12-06T20:11:09.087Z,101164.55
2018-12-06T20:13:41.940Z,101172.42
2018-12-06T20:16:13.965Z,101165.74
2018-12-06T20:18:51.883Z,101160.88
2018-12-06T20:21:31.545Z,101150.30
2018-12-06T20:24:10.983Z,101146.23
2018-12-06T20:26:49.907Z,101144.88
2018-12-06T20:29:28.515Z,101139.88
2018-12-06T20:31:59.703Z,101139.27
2018-12-06T20:34:40.237Z,101136.16
2018-12-06T20:40:07.761Z,101132.24
2018-12-06T20:42:41.795Z,101146.59
2018-12-06T20:45:22.444Z,101141.50
2018-12-06T20:48:05.527Z,101145.08
2018-12-06T20:50:49.335Z,101141.33
2018-12-06T20:53:25.710Z,101138.02
2018-12-06T20:55:58.971Z,101137.84
2018-12-06T20:58:37.520Z,101138.80
2018-12-06T21:01:10.840Z,101133.90
2018-12-06T21:03:43.951Z,101133.73
2018-12-06T21:06:24.553Z,101131.40
2018-12-06T21:09:11.558Z,101129.03
2018-12-06T21:11:51.335Z,101127.81
2018-12-06T21:14:22.759Z,101133.09
2018-12-06T21:17:05.034Z,101128.19
2018-12-06T21:19:44.239Z,101123.94
2018-12-06T21:22:16.708Z,101126.09
2018-12-06T21:24:56.238Z,101125.48
2018-12-06T21:27:40.811Z,101129.91
2018-12-06T21:30:15.059Z,101115.48
2018-12-06T21:32:46.398Z,101120.28
2018-12-06T21:35:25.294Z,101121.43
2018-12-06T21:38:11.934Z,101125.55
2018-12-06T21:40:44.500Z,101128.13
2018-12-06T21:43:16.595Z,101130.89
2018-12-06T21:45:54.435Z,101122.86
2018-12-06T21:51:20.647Z,101110.43
2018-12-06T21:53:52.784Z,101110.22
2018-12-06T21:56:33.509Z,101103.91
2018-12-06T21:59:11.731Z,101104.21
2018-12-06T22:01:42.188Z,101106.31
2018-12-06T22:07:13.939Z,101108.36
2018-12-06T22:09:53.212Z,101105.25
2018-12-06T22:12:26.500Z,101105.86
2018-12-06T22:15:05.668Z,101093.84
2018-12-06T22:17:46.162Z,101092.42
2018-12-06T22:20:18.468Z,101091.09
2018-12-06T22:22:50.824Z,101088.39
2018-12-06T22:25:23.753Z,101091.59
2018-12-06T22:28:02.330Z,101093.41
2018-12-06T22:30:40.515Z,101092.44
2018-12-06T22:33:11.913Z,101093.34
2018-12-06T22:35:51.602Z,101096.85
2018-12-06T22:38:34.043Z,101098.81
2018-12-06T22:41:11.285Z,101100.45
2018-12-06T22:43:50.234Z,101093.79
2018-12-06T22:49:19.948Z,101107.06
2018-12-06T22:51:51.222Z,101098.31
2018-12-06T22:54:30.623Z,101106.91
2018-12-06T23:02:49.073Z,101106.45
2018-12-06T23:05:27.870Z,101109.31
2018-12-06T23:08:06.272Z,101094.86
2018-12-06T23:10:38.478Z,101098.60
2018-12-06T23:13:11.451Z,101089.89
2018-12-06T23:15:50.974Z,101088.03
2018-12-06T23:18:29.972Z,101095.52
2018-12-06T23:21:01.191Z,101088.65
2018-12-06T23:23:33.077Z,101092.82
2018-12-06T23:26:10.904Z,101099.88
2018-12-06T23:28:50.754Z,101090.73
2018-12-06T23:34:22.718Z,101086.77
2018-12-06T23:37:02.068Z,101082.95
2018-12-06T23:39:41.101Z,101086.53
2018-12-06T23:45:11.901Z,101086.15
2018-12-06T23:47:53.132Z,101071.53
2018-12-06T23:50:27.478Z,101071.11
2018-12-06T23:52:58.508Z,101069.60
2018-12-06T23:55:37.137Z,101064.52
2018-12-06T23:58:09.289Z,101053.48
